Rhosneigr, United Kingdom
Current Conditions -  °F | °C
As of 5:50 AM on Tuesday 21 Oct 2014 (Local Time) from EGOV Reporting Station
Overcast Overcast  
Wind Chill: 12°   Ceiling: 6000
Heat Index: 12°   Visibility: 6mi
Dew Point:   Wind: 33mph
Humidity: 72%   Direction: 280°W
Pressure: 29.47"   Gusts: 46mph
Location:  53.23°N, 4.52°W
Report Text: EGOV 210450Z 28029G40KT 9999 FEW029 BKN060 OVC090 12/07 Q0998 BLU
Loading
Personal Weather Stations






























Interactive Weather Map
Tropical Storm Tracking
New forecast layout! Learn more

10-Day Weather Forecast

Advertisements
Track Severe Weather on mobile